Time;durP1;ratioP1;P1;durP2;ratioP2;P2;SDS_P1;SDS_P2;PMS_P1;PMS_P2;Temp;Humidity;BMP_temperature;BMP_pressure;BME280_temperature;BME280_humidity;BME280_pressure;Samples;Min_cycle;Max_cycle;Signal;HPM_P1;HPM_P2
2024/04/07 00:00:36;;;;;;;;;;;;;;;8.83;90.97;98324.59;4991551;28;19917;-91
2024/04/07 00:03:01;;;;;;;;;;;;;;;8.93;91.24;98310.69;4984541;28;19929;-91
2024/04/07 00:05:27;;;;;;;;;;;;;;;9.21;89.85;98308.81;4974308;28;19926;-90
2024/04/07 00:07:52;;;;;;;;;;;;;;;9.04;90.83;98312.75;4975325;28;19997;-91
2024/04/07 00:10:17;;;;;;;;;;;;;;;9.03;89.88;98314.50;4964182;28;19918;-91
2024/04/07 00:12:43;;;;;;;;;;;;;;;9.11;90.06;98312.09;5006127;28;19926;-90
2024/04/07 00:15:08;;;;;;;;;;;;;;;9.20;89.04;98302.59;4962609;28;19953;-91
2024/04/07 00:17:33;;;;;;;;;;;;;;;9.19;90.05;98310.50;4951141;28;19918;-90
2024/04/07 00:20:03;;;;;;;;;;;;;;;9.37;89.32;98303.03;4979051;28;19923;-90
2024/04/07 00:22:29;;;;;;;;;;;;;;;9.51;88.36;98290.09;4990929;28;19965;-90
2024/04/07 00:24:56;;;;;;;;;;;;;;;9.57;87.58;98282.25;4983184;28;19953;-92
2024/04/07 00:27:21;;;;;;;;;;;;;;;9.45;88.33;98292.59;4990322;28;20004;-91
2024/04/07 00:29:47;;;;;;;;;;;;;;;9.38;88.25;98291.50;4963144;28;20572;-92
2024/04/07 00:32:12;;;;;;;;;;;;;;;9.39;87.77;98290.69;4970863;28;19922;-91
2024/04/07 00:34:39;;;;;;;;;;;;;;;9.32;87.92;98282.47;4976724;28;19965;-91
2024/04/07 00:37:05;;;;;;;;;;;;;;;9.21;88.16;98282.19;4976162;28;20292;-91
2024/04/07 00:39:30;;;;;;;;;;;;;;;9.19;88.38;98278.56;4975183;28;19918;-90
2024/04/07 00:41:55;;;;;;;;;;;;;;;9.28;88.40;98278.81;4966205;28;20013;-90
2024/04/07 00:44:21;;;;;;;;;;;;;;;9.20;88.37;98277.75;5003652;28;19929;-91
2024/04/07 00:46:46;;;;;;;;;;;;;;;9.26;88.19;98261.94;4984894;28;19913;-91
2024/04/07 00:49:12;;;;;;;;;;;;;;;9.29;87.94;98261.97;5006245;28;19918;-91
2024/04/07 00:51:37;;;;;;;;;;;;;;;9.22;87.93;98262.69;4974954;28;19922;-91
2024/04/07 00:54:03;;;;;;;;;;;;;;;9.25;87.81;98253.03;4974239;28;20375;-91
2024/04/07 00:56:28;;;;;;;;;;;;;;;9.27;88.30;98266.38;4954782;28;20369;-91
2024/04/07 00:58:54;;;;;;;;;;;;;;;9.28;87.42;98268.16;4977296;28;20353;-91
2024/04/07 01:01:19;;;;;;;;;;;;;;;9.17;88.34;98277.66;4990636;28;19929;-91
2024/04/07 01:03:46;;;;;;;;;;;;;;;9.28;88.47;98276.16;4986768;28;20282;-90
2024/04/07 01:06:11;;;;;;;;;;;;;;;9.18;89.00;98275.00;5010246;28;19918;-91
2024/04/07 01:08:37;;;;;;;;;;;;;;;9.20;88.62;98265.31;4977096;28;19970;-91
2024/04/07 01:11:03;;;;;;;;;;;;;;;9.25;88.34;98268.13;4967550;28;19926;-91
2024/04/07 01:13:28;;;;;;;;;;;;;;;9.22;88.07;98270.69;4988279;28;19929;-90
2024/04/07 01:15:54;;;;;;;;;;;;;;;9.23;88.11;98259.16;4994696;28;19926;-91
2024/04/07 01:18:19;;;;;;;;;;;;;;;9.10;88.74;98259.69;4978852;28;19949;-91
2024/04/07 01:20:45;;;;;;;;;;;;;;;9.10;88.90;98273.00;4981265;28;20426;-92
2024/04/07 01:23:18;;;;;;;;;;;;;;;9.29;88.01;98261.97;4982678;28;20005;-92
2024/04/07 01:25:44;;;;;;;;;;;;;;;9.37;87.21;98262.19;4976496;28;20347;-92
2024/04/07 01:28:10;;;;;;;;;;;;;;;9.44;87.20;98264.19;5007727;28;20001;-92
2024/04/07 01:30:35;;;;;;;;;;;;;;;9.42;87.41;98268.53;4989890;28;20321;-92
2024/04/07 01:33:00;;;;;;;;;;;;;;;9.34;87.75;98279.00;4975831;28;19965;-92
2024/04/07 01:35:26;;;;;;;;;;;;;;;9.48;86.78;98268.69;4975503;28;20410;-91
2024/04/07 01:37:51;;;;;;;;;;;;;;;9.45;87.02;98277.53;4975395;28;20338;-91
2024/04/07 01:40:17;;;;;;;;;;;;;;;9.27;87.74;98278.78;4983588;28;20583;-91
2024/04/07 01:42:42;;;;;;;;;;;;;;;9.31;88.25;98278.03;4998097;28;19922;-90
2024/04/07 01:45:09;;;;;;;;;;;;;;;9.38;87.30;98275.53;4973047;28;19928;-91
2024/04/07 01:47:35;;;;;;;;;;;;;;;9.33;87.94;98277.19;4959878;28;19972;-90
2024/04/07 01:50:02;;;;;;;;;;;;;;;9.30;88.15;98281.56;4983249;28;19972;-91
2024/04/07 01:52:27;;;;;;;;;;;;;;;9.27;88.29;98282.34;4976623;28;19924;-93
2024/04/07 01:54:52;;;;;;;;;;;;;;;9.24;88.09;98282.25;4978001;28;20314;-91
2024/04/07 01:57:18;;;;;;;;;;;;;;;9.34;87.95;98278.06;4979198;28;20032;-91
2024/04/07 01:59:43;;;;;;;;;;;;;;;9.72;85.76;98273.75;4981089;28;20004;-90
2024/04/07 02:02:09;;;;;;;;;;;;;;;9.58;86.42;98268.09;4958533;28;20562;-92
2024/04/07 02:04:34;;;;;;;;;;;;;;;9.59;86.59;98269.00;4981979;28;19965;-91
2024/04/07 02:07:00;;;;;;;;;;;;;;;9.37;86.97;98275.50;4955582;28;20423;-91
2024/04/07 02:09:25;;;;;;;;;;;;;;;9.29;87.96;98275.28;4973458;28;20406;-91
2024/04/07 02:11:51;;;;;;;;;;;;;;;9.29;87.99;98283.28;5006817;28;19918;-91
2024/04/07 02:14:16;;;;;;;;;;;;;;;9.22;88.24;98276.91;4958622;28;19941;-91
2024/04/07 02:16:42;;;;;;;;;;;;;;;9.18;88.68;98282.09;4958645;28;19928;-91
2024/04/07 02:19:07;;;;;;;;;;;;;;;9.18;88.27;98276.78;4972145;28;19928;-93
2024/04/07 02:21:33;;;;;;;;;;;;;;;9.10;88.89;98283.63;4997529;28;19926;-91
2024/04/07 02:23:59;;;;;;;;;;;;;;;8.92;89.47;98274.31;4980541;28;19918;-91
2024/04/07 02:26:25;;;;;;;;;;;;;;;9.17;88.54;98274.97;4970469;28;19929;-91
2024/04/07 02:28:51;;;;;;;;;;;;;;;9.07;88.21;98286.25;4969925;28;19918;-91
2024/04/07 02:31:17;;;;;;;;;;;;;;;9.00;88.51;98288.69;4973363;28;19969;-93
2024/04/07 02:33:46;;;;;;;;;;;;;;;8.91;89.03;98277.84;4997125;28;19962;-90
2024/04/07 02:36:12;;;;;;;;;;;;;;;8.76;89.66;98282.69;4964846;28;19961;-91
2024/04/07 02:38:37;;;;;;;;;;;;;;;8.79;90.02;98297.84;4978596;28;19925;-91
2024/04/07 02:41:03;;;;;;;;;;;;;;;8.71;90.52;98295.84;4979652;28;19935;-92
2024/04/07 02:43:28;;;;;;;;;;;;;;;8.73;90.76;98299.47;4980770;28;20249;-92
2024/04/07 02:48:38;;;;;;;;;;;;;;;8.71;91.11;98301.16;4993537;28;19927;-91
2024/04/07 02:51:03;;;;;;;;;;;;;;;8.64;91.20;98300.97;4955385;28;19922;-92
2024/04/07 02:53:28;;;;;;;;;;;;;;;8.60;91.30;98307.94;5001482;28;19917;-91
2024/04/07 02:55:54;;;;;;;;;;;;;;;8.71;90.63;98308.25;4982236;28;20393;-91
2024/04/07 02:58:19;;;;;;;;;;;;;;;8.60;91.07;98307.03;4971473;28;19917;-91
2024/04/07 03:00:45;;;;;;;;;;;;;;;8.59;91.25;98315.88;4981836;28;19917;-91
2024/04/07 03:03:10;;;;;;;;;;;;;;;8.54;91.40;98318.41;4975447;28;20009;-91
2024/04/07 03:05:39;;;;;;;;;;;;;;;8.53;91.52;98321.00;4977407;28;20545;-90
2024/04/07 03:08:07;;;;;;;;;;;;;;;8.39;91.91;98324.16;5004588;28;19922;-93
2024/04/07 03:10:33;;;;;;;;;;;;;;;8.42;92.17;98326.88;4972625;28;19918;-91
2024/04/07 03:12:58;;;;;;;;;;;;;;;8.38;92.51;98327.63;4974008;28;20016;-92
2024/04/07 03:15:23;;;;;;;;;;;;;;;8.32;92.67;98337.16;4981916;28;19925;-91
2024/04/07 03:17:49;;;;;;;;;;;;;;;8.34;92.27;98349.66;5007272;28;19957;-92
2024/04/07 03:20:14;;;;;;;;;;;;;;;8.34;92.18;98344.34;4976567;28;19923;-91
2024/04/07 03:22:39;;;;;;;;;;;;;;;8.36;92.05;98353.28;5000366;28;19922;-91
2024/04/07 03:25:05;;;;;;;;;;;;;;;8.34;92.15;98357.63;4952036;28;19922;-91
2024/04/07 03:27:30;;;;;;;;;;;;;;;8.29;92.50;98351.25;4982839;28;20328;-91
2024/04/07 03:29:55;;;;;;;;;;;;;;;8.21;92.56;98360.75;4975200;28;19918;-90
2024/04/07 03:32:21;;;;;;;;;;;;;;;8.10;92.85;98359.50;4981148;28;19996;-91
2024/04/07 03:34:46;;;;;;;;;;;;;;;8.01;93.53;98361.84;4990523;28;19918;-91
2024/04/07 03:37:13;;;;;;;;;;;;;;;8.04;93.95;98375.22;4989432;28;20553;-91
2024/04/07 03:39:38;;;;;;;;;;;;;;;8.16;94.14;98373.88;4990103;28;20008;-92
2024/04/07 03:42:05;;;;;;;;;;;;;;;8.34;93.38;98378.00;4959730;28;19918;-91
2024/04/07 03:44:33;;;;;;;;;;;;;;;8.31;93.36;98377.88;5010000;28;19933;-91
2024/04/07 03:46:58;;;;;;;;;;;;;;;8.20;93.61;98380.19;4978873;28;19917;-91
2024/04/07 03:49:24;;;;;;;;;;;;;;;8.28;93.90;98391.97;4957913;28;19917;-91
2024/04/07 03:51:50;;;;;;;;;;;;;;;8.23;93.95;98402.44;4977114;28;19937;-90
2024/04/07 03:54:15;;;;;;;;;;;;;;;8.18;94.06;98403.16;4975221;28;19918;-91
2024/04/07 03:56:40;;;;;;;;;;;;;;;8.19;94.46;98397.91;4984816;28;20359;-91
2024/04/07 03:59:05;;;;;;;;;;;;;;;8.21;94.36;98406.81;4978903;28;19929;-89
2024/04/07 04:01:31;;;;;;;;;;;;;;;8.14;94.50;98411.84;4976161;28;19945;-90
2024/04/07 04:03:57;;;;;;;;;;;;;;;8.20;94.35;98407.66;4968850;28;19922;-91
2024/04/07 04:06:24;;;;;;;;;;;;;;;8.16;93.97;98413.72;4978759;28;19918;-89
2024/04/07 04:08:50;;;;;;;;;;;;;;;8.09;94.23;98425.00;4973414;28;20268;-90
2024/04/07 04:11:15;;;;;;;;;;;;;;;8.11;94.43;98423.31;4978322;28;20012;-91
2024/04/07 04:13:43;;;;;;;;;;;;;;;8.12;94.34;98432.19;4987920;28;19922;-91
2024/04/07 04:16:08;;;;;;;;;;;;;;;8.20;93.93;98439.56;4957051;28;19921;-91
2024/04/07 04:18:33;;;;;;;;;;;;;;;8.17;94.46;98438.56;4976168;28;19918;-90
2024/04/07 04:20:59;;;;;;;;;;;;;;;8.34;93.72;98434.72;4969317;28;19948;-91
2024/04/07 04:23:24;;;;;;;;;;;;;;;8.20;93.99;98452.84;4966996;28;19964;-91
2024/04/07 04:25:50;;;;;;;;;;;;;;;8.22;94.08;98448.47;5001181;28;19918;-91
2024/04/07 04:28:15;;;;;;;;;;;;;;;8.35;93.69;98457.78;4979962;28;19973;-90
2024/04/07 04:30:41;;;;;;;;;;;;;;;8.12;94.14;98450.78;4988800;28;19917;-93
2024/04/07 04:33:06;;;;;;;;;;;;;;;8.08;94.66;98459.50;4977309;28;19914;-93
2024/04/07 04:35:33;;;;;;;;;;;;;;;8.06;94.49;98467.41;5025784;28;20014;-93
2024/04/07 04:38:01;;;;;;;;;;;;;;;7.98;94.96;98471.56;5006504;28;19930;-93
2024/04/07 04:40:26;;;;;;;;;;;;;;;8.08;95.13;98483.41;4997649;28;20573;-91
2024/04/07 04:42:52;;;;;;;;;;;;;;;8.18;94.35;98470.47;4975247;28;19961;-91
2024/04/07 04:45:18;;;;;;;;;;;;;;;8.01;94.66;98478.75;5012349;28;20294;-91
2024/04/07 04:47:43;;;;;;;;;;;;;;;8.04;94.74;98471.75;4984452;28;20004;-91
2024/04/07 04:50:10;;;;;;;;;;;;;;;7.96;94.72;98479.47;5005000;28;19968;-91
2024/04/07 04:52:36;;;;;;;;;;;;;;;8.04;95.51;98479.72;4978968;28;19941;-91
2024/04/07 04:55:03;;;;;;;;;;;;;;;8.07;95.29;98470.97;4998232;28;19921;-92
2024/04/07 04:57:28;;;;;;;;;;;;;;;8.06;94.89;98474.50;4989782;28;19926;-91
2024/04/07 04:59:54;;;;;;;;;;;;;;;8.12;94.99;98493.28;5002577;28;19918;-91
2024/04/07 05:02:20;;;;;;;;;;;;;;;8.20;94.67;98486.50;4962038;28;20367;-91
2024/04/07 05:04:46;;;;;;;;;;;;;;;8.04;94.84;98500.06;4975740;28;20016;-90
2024/04/07 05:07:11;;;;;;;;;;;;;;;7.96;94.98;98503.38;4978932;28;19976;-90
2024/04/07 05:09:36;;;;;;;;;;;;;;;7.95;95.59;98500.66;4976600;28;19918;-90
2024/04/07 05:12:03;;;;;;;;;;;;;;;8.10;95.32;98505.63;5002056;28;20032;-92
2024/04/07 05:14:28;;;;;;;;;;;;;;;8.04;95.13;98500.97;5005762;28;19941;-91
2024/04/07 05:16:53;;;;;;;;;;;;;;;8.06;95.15;98503.72;4962227;28;19973;-91
2024/04/07 05:19:19;;;;;;;;;;;;;;;8.16;95.15;98505.84;4980054;28;20757;-91
2024/04/07 05:21:44;;;;;;;;;;;;;;;8.34;93.56;98513.56;4977882;28;20809;-90
2024/04/07 05:24:09;;;;;;;;;;;;;;;8.41;92.74;98507.63;4975233;28;20343;-90
2024/04/07 05:26:35;;;;;;;;;;;;;;;8.61;91.67;98519.81;4967691;28;20355;-90
2024/04/07 05:29:00;;;;;;;;;;;;;;;8.73;90.84;98525.56;4979962;28;19936;-91
2024/04/07 05:31:25;;;;;;;;;;;;;;;8.82;90.17;98530.28;4976134;28;19918;-90
2024/04/07 05:33:51;;;;;;;;;;;;;;;8.92;89.51;98531.47;4994014;28;19918;-89
2024/04/07 05:36:16;;;;;;;;;;;;;;;8.79;89.77;98537.25;4963962;28;19922;-91
2024/04/07 05:38:42;;;;;;;;;;;;;;;8.77;89.90;98544.25;4961820;28;20004;-91
2024/04/07 05:41:08;;;;;;;;;;;;;;;8.82;90.73;98550.66;4978026;28;19933;-91
2024/04/07 05:43:34;;;;;;;;;;;;;;;8.76;90.32;98547.78;4983233;28;19917;-91
2024/04/07 05:46:03;;;;;;;;;;;;;;;8.72;90.47;98554.78;4961026;28;19933;-91
2024/04/07 05:48:29;;;;;;;;;;;;;;;8.71;90.85;98561.81;4984054;28;20262;-91
2024/04/07 05:50:55;;;;;;;;;;;;;;;8.78;90.69;98562.03;4982660;28;20357;-91
2024/04/07 05:53:20;;;;;;;;;;;;;;;8.84;90.49;98560.47;4975732;28;20005;-92
2024/04/07 05:55:45;;;;;;;;;;;;;;;8.97;89.64;98561.78;4969282;28;19924;-92
2024/04/07 05:58:12;;;;;;;;;;;;;;;9.00;89.73;98561.88;4976735;28;19918;-92
2024/04/07 06:00:37;;;;;;;;;;;;;;;9.15;89.43;98569.44;4978488;28;19965;-92
2024/04/07 06:03:04;;;;;;;;;;;;;;;9.18;88.77;98569.56;4979079;28;20343;-92
2024/04/07 06:05:30;;;;;;;;;;;;;;;9.24;89.18;98580.38;4976802;28;20016;-92
2024/04/07 06:07:55;;;;;;;;;;;;;;;9.29;89.14;98584.09;4991503;28;19929;-91
2024/04/07 06:10:20;;;;;;;;;;;;;;;9.36;88.93;98586.13;4998407;28;20256;-91
2024/04/07 06:12:46;;;;;;;;;;;;;;;9.40;88.17;98590.69;5006247;28;19918;-92
2024/04/07 06:15:12;;;;;;;;;;;;;;;9.44;87.96;98587.28;4971849;28;20357;-91
2024/04/07 06:17:37;;;;;;;;;;;;;;;9.65;87.01;98596.78;4960958;28;19933;-91
2024/04/07 06:20:04;;;;;;;;;;;;;;;9.71;86.47;98597.84;4969179;28;19918;-88
2024/04/07 06:22:30;;;;;;;;;;;;;;;9.84;85.88;98604.47;4993416;28;19922;-92
2024/04/07 06:24:57;;;;;;;;;;;;;;;9.97;84.99;98606.63;4982389;28;19925;-90
2024/04/07 06:27:22;;;;;;;;;;;;;;;10.11;85.20;98604.38;4965034;28;19926;-90
2024/04/07 06:29:49;;;;;;;;;;;;;;;10.32;84.10;98601.44;4966476;28;20069;-89
2024/04/07 06:32:16;;;;;;;;;;;;;;;10.35;83.98;98612.19;4995767;28;19918;-91
2024/04/07 06:34:42;;;;;;;;;;;;;;;10.45;82.66;98611.59;4984559;28;20012;-92
2024/04/07 06:37:09;;;;;;;;;;;;;;;10.69;82.16;98627.38;4977548;28;20004;-90
2024/04/07 06:39:34;;;;;;;;;;;;;;;10.73;81.13;98639.00;5009177;28;20052;-91
2024/04/07 06:42:00;;;;;;;;;;;;;;;10.78;80.99;98630.28;4980061;28;19949;-92
2024/04/07 06:44:26;;;;;;;;;;;;;;;11.04;79.90;98638.06;4964533;28;19922;-91
2024/04/07 06:46:51;;;;;;;;;;;;;;;11.61;78.94;98631.44;4980584;28;19949;-91
2024/04/07 06:49:18;;;;;;;;;;;;;;;11.98;76.98;98630.53;4973335;28;19929;-91
2024/04/07 06:51:43;;;;;;;;;;;;;;;12.41;74.73;98628.75;4954739;28;19985;-91
2024/04/07 06:54:09;;;;;;;;;;;;;;;13.02;72.44;98630.81;4960233;28;19933;-91
2024/04/07 06:56:34;;;;;;;;;;;;;;;13.28;71.28;98643.81;4959906;28;19926;-90
2024/04/07 06:59:00;;;;;;;;;;;;;;;13.40;70.57;98644.00;4980037;28;20422;-90
2024/04/07 07:01:25;;;;;;;;;;;;;;;13.24;71.06;98647.31;4977033;28;19922;-92
2024/04/07 07:03:51;;;;;;;;;;;;;;;13.13;71.42;98651.53;4980844;28;19995;-92
2024/04/07 07:06:18;;;;;;;;;;;;;;;13.23;71.14;98641.06;4962120;28;20354;-92
2024/04/07 07:08:43;;;;;;;;;;;;;;;13.43;70.89;98646.75;4983315;28;19918;-92
2024/04/07 07:11:09;;;;;;;;;;;;;;;13.27;71.54;98658.06;4980730;28;19926;-91
2024/04/07 07:13:43;;;;;;;;;;;;;;;13.56;70.26;98659.47;5015846;28;20345;-91
2024/04/07 07:16:09;;;;;;;;;;;;;;;13.83;69.86;98668.81;4990657;28;19918;-92
2024/04/07 07:18:34;;;;;;;;;;;;;;;14.01;69.14;98669.09;4977125;28;19928;-90
2024/04/07 07:20:59;;;;;;;;;;;;;;;14.34;68.14;98667.75;4983221;28;19917;-90
2024/04/07 07:23:29;;;;;;;;;;;;;;;14.53;67.33;98672.50;5015540;28;19922;-91
2024/04/07 07:25:54;;;;;;;;;;;;;;;14.53;68.36;98667.13;4980202;28;19989;-92
2024/04/07 07:28:20;;;;;;;;;;;;;;;14.85;68.40;98670.22;4978663;28;19968;-91
2024/04/07 07:30:46;;;;;;;;;;;;;;;15.38;67.84;98672.53;5013012;28;20319;-91
2024/04/07 07:33:11;;;;;;;;;;;;;;;15.76;66.96;98672.00;4991396;28;19926;-92
2024/04/07 07:35:38;;;;;;;;;;;;;;;15.96;66.86;98674.81;4959422;28;19918;-90
2024/04/07 07:38:03;;;;;;;;;;;;;;;16.38;65.15;98674.16;4960385;28;20275;-90
2024/04/07 07:40:30;;;;;;;;;;;;;;;16.41;64.42;98675.97;4982952;28;19926;-91
2024/04/07 07:42:56;;;;;;;;;;;;;;;16.40;66.36;98679.56;4978779;28;19926;-92
2024/04/07 07:45:21;;;;;;;;;;;;;;;16.59;66.68;98684.13;4994348;28;20411;-91
2024/04/07 07:47:47;;;;;;;;;;;;;;;16.54;66.06;98677.81;4980214;28;19980;-90
2024/04/07 07:50:13;;;;;;;;;;;;;;;17.14;66.09;98681.63;4969867;28;19918;-90
2024/04/07 07:52:38;;;;;;;;;;;;;;;17.11;64.02;98676.25;4993097;28;20009;-91
2024/04/07 07:55:04;;;;;;;;;;;;;;;17.42;63.35;98665.50;4973789;28;19918;-91
2024/04/07 07:57:29;;;;;;;;;;;;;;;17.55;61.80;98667.31;4997016;28;19922;-92
2024/04/07 07:59:54;;;;;;;;;;;;;;;18.02;60.67;98669.13;4986935;28;19993;-93
2024/04/07 08:02:24;;;;;;;;;;;;;;;18.63;57.28;98668.94;5006956;28;20381;-93
2024/04/07 08:04:49;;;;;;;;;;;;;;;18.91;53.24;98669.75;4985267;28;19921;-93
2024/04/07 08:07:15;;;;;;;;;;;;;;;19.59;52.64;98672.91;4978690;28;19918;-93
2024/04/07 08:09:41;;;;;;;;;;;;;;;20.14;50.91;98674.25;4990184;28;20401;-95
2024/04/07 08:12:06;;;;;;;;;;;;;;;19.51;48.59;98682.00;4983452;28;19925;-91
2024/04/07 08:14:32;;;;;;;;;;;;;;;19.99;49.58;98680.72;4967527;28;19949;-93
2024/04/07 08:16:57;;;;;;;;;;;;;;;20.88;47.23;98690.59;4956514;28;19926;-92
2024/04/07 08:19:22;;;;;;;;;;;;;;;19.81;48.08;98700.72;4971653;28;19922;-90
2024/04/07 08:21:48;;;;;;;;;;;;;;;20.12;47.28;98695.03;4996951;28;20341;-92
2024/04/07 08:24:13;;;;;;;;;;;;;;;20.48;45.81;98702.81;5013127;28;19929;-93
2024/04/07 08:26:38;;;;;;;;;;;;;;;21.33;43.58;98699.09;4974708;28;19925;-93
2024/04/07 08:29:04;;;;;;;;;;;;;;;21.50;44.07;98707.84;4988423;28;19922;-93
2024/04/07 08:31:29;;;;;;;;;;;;;;;21.35;44.09;98716.22;4992987;28;19918;-92
2024/04/07 08:33:54;;;;;;;;;;;;;;;22.23;42.64;98720.28;5005760;28;19922;-93
2024/04/07 08:36:22;;;;;;;;;;;;;;;22.17;43.11;98728.53;4976320;28;19922;-93
2024/04/07 08:38:47;;;;;;;;;;;;;;;21.92;43.39;98728.00;4983885;28;19926;-92
2024/04/07 08:41:12;;;;;;;;;;;;;;;22.58;41.71;98735.03;4979410;28;20366;-92
2024/04/07 08:43:38;;;;;;;;;;;;;;;22.57;41.15;98732.38;4998987;28;20363;-93
2024/04/07 08:46:10;;;;;;;;;;;;;;;22.61;40.98;98721.38;4976459;28;19918;-92
2024/04/07 08:48:35;;;;;;;;;;;;;;;22.09;42.03;98725.03;4981133;28;19917;-91
2024/04/07 08:51:03;;;;;;;;;;;;;;;21.98;42.09;98717.03;4980712;28;19918;-92
2024/04/07 08:53:29;;;;;;;;;;;;;;;22.30;41.39;98717.44;4974762;28;19936;-91
2024/04/07 08:55:54;;;;;;;;;;;;;;;22.11;42.30;98723.19;4991354;28;19922;-94
2024/04/07 08:58:20;;;;;;;;;;;;;;;22.17;42.50;98725.81;4983668;28;20021;-92
2024/04/07 09:00:47;;;;;;;;;;;;;;;22.37;42.07;98729.97;4963208;28;19979;-91
2024/04/07 09:03:13;;;;;;;;;;;;;;;21.95;41.52;98727.97;4974126;28;19922;-93
2024/04/07 09:05:38;;;;;;;;;;;;;;;21.98;42.13;98721.56;4968777;28;19992;-93
2024/04/07 09:08:05;;;;;;;;;;;;;;;21.92;42.81;98721.69;4997598;28;19932;-92
2024/04/07 09:10:30;;;;;;;;;;;;;;;21.49;42.33;98722.34;4982114;28;19941;-92
2024/04/07 09:12:57;;;;;;;;;;;;;;;21.55;43.24;98721.38;4983675;28;19918;-92
2024/04/07 09:15:23;;;;;;;;;;;;;;;21.69;43.17;98733.81;4968278;28;19968;-92
2024/04/07 09:17:49;;;;;;;;;;;;;;;21.82;42.41;98723.66;4993135;28;20016;-93
2024/04/07 09:20:20;;;;;;;;;;;;;;;22.03;42.14;98728.72;5004752;28;19917;-94
2024/04/07 09:22:46;;;;;;;;;;;;;;;22.49;41.43;98725.22;5009354;28;19918;-95
2024/04/07 09:25:12;;;;;;;;;;;;;;;22.99;40.68;98722.44;4980311;28;19979;-94
2024/04/07 09:27:37;;;;;;;;;;;;;;;22.94;40.23;98725.28;5008316;28;19918;-94
2024/04/07 09:30:08;;;;;;;;;;;;;;;23.50;39.76;98724.97;4996992;28;19921;-94
2024/04/07 09:32:35;;;;;;;;;;;;;;;24.25;37.74;98721.34;4987430;28;20367;-94
2024/04/07 09:35:00;;;;;;;;;;;;;;;24.57;37.08;98720.50;4981892;28;19917;-94
2024/04/07 09:37:25;;;;;;;;;;;;;;;24.82;36.50;98723.47;4986760;28;19925;-94
2024/04/07 09:39:51;;;;;;;;;;;;;;;25.16;35.65;98725.25;4983714;28;19917;-93
2024/04/07 09:42:22;;;;;;;;;;;;;;;25.53;35.78;98715.91;5012561;28;19916;-94
2024/04/07 09:44:47;;;;;;;;;;;;;;;25.32;36.12;98707.44;4982187;28;20414;-94
2024/04/07 09:47:20;;;;;;;;;;;;;;;25.96;34.90;98709.06;5003950;28;19953;-95
2024/04/07 09:49:47;;;;;;;;;;;;;;;25.38;35.50;98722.72;4995648;28;19922;-94
2024/04/07 09:52:14;;;;;;;;;;;;;;;25.32;36.69;98723.81;4999747;28;20009;-94
2024/04/07 09:54:47;;;;;;;;;;;;;;;25.29;35.98;98726.63;5007911;28;19922;-95
2024/04/07 09:57:13;;;;;;;;;;;;;;;24.39;37.71;98731.94;4982104;28;19928;-95
2024/04/07 09:59:39;;;;;;;;;;;;;;;24.06;38.34;98728.22;4990619;28;19915;-95
2024/04/07 10:02:05;;;;;;;;;;;;;;;23.55;39.01;98723.03;4967021;28;19924;-95
2024/04/07 10:04:33;;;;;;;;;;;;;;;23.64;40.10;98722.88;5004182;28;20369;-96
2024/04/07 10:07:01;;;;;;;;;;;;;;;23.82;38.96;98712.47;4984843;28;19917;-95
2024/04/07 10:09:28;;;;;;;;;;;;;;;24.54;38.53;98703.34;4955481;28;19922;-95
2024/04/07 10:11:55;;;;;;;;;;;;;;;24.66;38.49;98710.28;4961575;28;19922;-96
2024/04/07 10:14:22;;;;;;;;;;;;;;;24.61;38.75;98718.59;4972874;28;19932;-95
2024/04/07 10:16:50;;;;;;;;;;;;;;;24.83;37.49;98719.78;5040271;23;19920;-96
2024/04/07 10:19:23;;;;;;;;;;;;;;;25.71;36.07;98725.34;5016550;28;19921;-96
2024/04/07 10:21:49;;;;;;;;;;;;;;;26.16;35.64;98716.59;5018839;28;19924;-96
2024/04/07 10:24:19;;;;;;;;;;;;;;;26.93;33.40;98712.09;4999554;28;19913;-96
2024/04/07 10:26:55;;;;;;;;;;;;;;;27.42;33.71;98712.97;5026704;28;19920;-96
2024/04/07 10:29:24;;;;;;;;;;;;;;;27.58;32.06;98703.19;5034087;28;20369;-96
2024/04/07 10:31:49;;;;;;;;;;;;;;;27.90;31.59;98696.44;5033562;28;19992;-96
2024/04/07 10:34:15;;;;;;;;;;;;;;;27.81;31.51;98700.44;5014174;28;19933;-96
2024/04/07 10:36:40;;;;;;;;;;;;;;;28.10;31.21;98695.59;5036370;28;19921;-94
2024/04/07 10:39:15;;;;;;;;;;;;;;;27.57;30.87;98691.34;5013240;28;19955;-96
2024/04/07 10:41:41;;;;;;;;;;;;;;;27.71;31.09;98692.63;5016563;28;19953;-95
2024/04/07 10:44:09;;;;;;;;;;;;;;;28.71;30.09;98678.34;5028883;28;19918;-94
2024/04/07 10:46:35;;;;;;;;;;;;;;;29.65;29.55;98678.50;5010979;28;19922;-95
2024/04/07 10:49:02;;;;;;;;;;;;;;;29.98;27.70;98677.78;5021899;28;19936;-94
2024/04/07 10:51:33;;;;;;;;;;;;;;;30.21;27.42;98671.16;5005432;28;19918;-95
2024/04/07 10:54:02;;;;;;;;;;;;;;;29.96;26.96;98674.25;5015114;28;19922;-93
2024/04/07 10:56:28;;;;;;;;;;;;;;;29.01;28.61;98682.44;4998027;28;19949;-92
2024/04/07 10:58:54;;;;;;;;;;;;;;;29.43;27.73;98675.00;5020014;28;19979;-92
2024/04/07 11:01:20;;;;;;;;;;;;;;;29.13;28.08;98675.50;4998779;28;19930;-93
2024/04/07 11:03:46;;;;;;;;;;;;;;;27.76;30.77;98672.31;5002498;28;19973;-92
2024/04/07 11:06:13;;;;;;;;;;;;;;;28.19;29.97;98669.63;5019042;28;20295;-96
2024/04/07 11:08:43;;;;;;;;;;;;;;;27.17;31.86;98672.84;4999680;28;19918;-96
2024/04/07 11:11:14;;;;;;;;;;;;;;;27.01;32.31;98671.59;5002620;28;19971;-95
2024/04/07 11:13:40;;;;;;;;;;;;;;;26.86;32.32;98660.28;4981986;28;20330;-94
2024/04/07 11:16:10;;;;;;;;;;;;;;;27.08;32.31;98659.50;4984653;28;19924;-95
2024/04/07 11:18:37;;;;;;;;;;;;;;;28.33;31.45;98668.06;5005531;28;19918;-96
2024/04/07 11:21:10;;;;;;;;;;;;;;;28.16;30.71;98670.63;4993967;28;19921;-96
2024/04/07 11:23:39;;;;;;;;;;;;;;;26.40;33.14;98666.53;5001208;28;19917;-95
2024/04/07 11:26:04;;;;;;;;;;;;;;;26.52;32.67;98657.91;4997488;28;19924;-95
2024/04/07 11:28:31;;;;;;;;;;;;;;;27.49;33.03;98659.69;5006487;28;19983;-94
2024/04/07 11:30:57;;;;;;;;;;;;;;;28.18;30.72;98655.00;5008183;28;20347;-95
2024/04/07 11:33:28;;;;;;;;;;;;;;;29.57;29.58;98648.66;4996510;28;19917;-95
2024/04/07 11:35:53;;;;;;;;;;;;;;;30.22;27.31;98634.41;4999223;28;20000;-95
2024/04/07 11:38:19;;;;;;;;;;;;;;;29.87;28.51;98639.81;4993431;28;20366;-95
2024/04/07 11:40:48;;;;;;;;;;;;;;;31.48;27.69;98626.59;5002415;28;20338;-95
2024/04/07 11:43:13;;;;;;;;;;;;;;;30.63;26.84;98629.47;5006223;28;19913;-94
2024/04/07 11:45:39;;;;;;;;;;;;;;;31.12;26.77;98630.44;4998152;28;19917;-95
2024/04/07 11:48:07;;;;;;;;;;;;;;;31.42;26.85;98622.31;4996408;28;19913;-93
2024/04/07 11:50:33;;;;;;;;;;;;;;;30.89;27.09;98615.16;5006011;28;19922;-94
2024/04/07 11:52:58;;;;;;;;;;;;;;;31.56;24.91;98612.34;5005370;28;19917;-94
2024/04/07 11:55:24;;;;;;;;;;;;;;;30.80;26.11;98607.41;4995457;28;20302;-96
2024/04/07 11:57:50;;;;;;;;;;;;;;;29.06;28.41;98608.94;5008689;28;19986;-92
2024/04/07 12:00:15;;;;;;;;;;;;;;;28.47;28.99;98614.44;4977528;28;19976;-94
2024/04/07 12:02:44;;;;;;;;;;;;;;;30.68;26.68;98602.56;4998908;28;19928;-94
2024/04/07 12:05:13;;;;;;;;;;;;;;;30.59;26.55;98595.66;5014525;28;19921;-95
2024/04/07 12:07:41;;;;;;;;;;;;;;;32.54;24.06;98592.72;5004984;28;19984;-93
2024/04/07 12:10:15;;;;;;;;;;;;;;;32.42;25.57;98599.88;5010627;28;19971;-94
2024/04/07 12:12:40;;;;;;;;;;;;;;;32.28;25.44;98608.09;4998509;28;19921;-93
2024/04/07 12:15:06;;;;;;;;;;;;;;;32.74;23.60;98599.75;4985685;28;19921;-93
2024/04/07 12:17:33;;;;;;;;;;;;;;;29.60;27.28;98612.72;5002382;28;19918;-95
2024/04/07 12:19:59;;;;;;;;;;;;;;;31.51;26.20;98595.19;5027286;28;19928;-95
2024/04/07 12:22:33;;;;;;;;;;;;;;;33.00;24.52;98593.47;5027420;28;19910;-96
2024/04/07 12:25:05;;;;;;;;;;;;;;;31.97;25.20;98582.34;5023203;28;19925;-95
2024/04/07 12:27:30;;;;;;;;;;;;;;;32.03;24.52;98564.53;5010291;28;19936;-93
2024/04/07 12:29:56;;;;;;;;;;;;;;;32.03;24.67;98565.41;4993293;28;19921;-94
2024/04/07 12:32:22;;;;;;;;;;;;;;;32.92;23.30;98580.16;4998316;28;19925;-93
2024/04/07 12:34:49;;;;;;;;;;;;;;;32.10;24.29;98569.59;4998302;28;19918;-94
2024/04/07 12:37:15;;;;;;;;;;;;;;;31.82;24.93;98575.00;5015783;28;19937;-93
2024/04/07 12:39:41;;;;;;;;;;;;;;;31.45;25.05;98573.50;5002165;28;20001;-93
2024/04/07 12:42:07;;;;;;;;;;;;;;;32.49;23.47;98576.44;4987303;28;19929;-93
2024/04/07 12:44:32;;;;;;;;;;;;;;;32.01;24.42;98561.00;5010421;28;19924;-92
2024/04/07 12:46:58;;;;;;;;;;;;;;;32.44;23.88;98562.03;5003729;28;20011;-93
2024/04/07 12:49:24;;;;;;;;;;;;;;;33.15;22.60;98559.31;4996565;28;19918;-93